Time;durP1;ratioP1;P1;durP2;ratioP2;P2;SDS_P1;SDS_P2;PMS_P1;PMS_P2;Temp;Humidity;BMP_temperature;BMP_pressure;BME280_temperature;BME280_humidity;BME280_pressure;Samples;Min_cycle;Max_cycle;Signal;HPM_P1;HPM_P2
2023/07/27 00:02:01;;;;;;;4.65;2.70;;;;;;;13.01;100.00;100696.88;5010786;28;20180;-45
2023/07/27 00:04:27;;;;;;;3.45;2.45;;;;;;;13.06;100.00;100708.25;5008991;28;20617;-43
2023/07/27 00:06:53;;;;;;;5.38;2.97;;;;;;;13.04;100.00;100694.00;5011336;28;20485;-46
2023/07/27 00:09:18;;;;;;;3.50;2.45;;;;;;;13.08;100.00;100709.06;5010426;28;20185;-45
2023/07/27 00:11:44;;;;;;;8.05;3.00;;;;;;;13.09;100.00;100704.53;5010981;28;20173;-45
2023/07/27 00:14:10;;;;;;;5.97;2.50;;;;;;;13.08;100.00;100703.69;5012484;28;20555;-46
2023/07/27 00:16:35;;;;;;;5.18;2.53;;;;;;;13.14;100.00;100707.84;5011189;28;20242;-44
2023/07/27 00:19:01;;;;;;;5.57;2.67;;;;;;;13.09;100.00;100704.53;5010162;28;20200;-45
2023/07/27 00:21:26;;;;;;;7.22;2.60;;;;;;;13.05;100.00;100703.81;5008732;28;20674;-44
2023/07/27 00:23:52;;;;;;;5.25;3.00;;;;;;;13.07;100.00;100698.38;5020916;28;20180;-45
2023/07/27 00:26:18;;;;;;;4.90;2.75;;;;;;;13.05;100.00;100705.63;5007710;28;20512;-45
2023/07/27 00:28:43;;;;;;;4.78;2.80;;;;;;;13.06;100.00;100710.94;5010423;28;20181;-44
2023/07/27 00:31:09;;;;;;;10.98;3.72;;;;;;;12.99;100.00;100707.69;5010435;28;20263;-45
2023/07/27 00:33:35;;;;;;;4.90;2.75;;;;;;;12.99;100.00;100704.16;5009914;28;20176;-43
2023/07/27 00:36:00;;;;;;;3.53;2.88;;;;;;;13.09;100.00;100708.09;5009590;28;20632;-45
2023/07/27 00:38:27;;;;;;;6.65;2.88;;;;;;;12.91;100.00;100717.09;5008686;28;20353;-44
2023/07/27 00:40:53;;;;;;;3.88;2.83;;;;;;;12.90;100.00;100715.34;5010246;28;20176;-46
2023/07/27 00:43:18;;;;;;;6.30;3.30;;;;;;;12.81;100.00;100716.66;5008665;28;20631;-44
2023/07/27 00:45:46;;;;;;;6.50;3.38;;;;;;;12.93;100.00;100716.06;5010050;28;20196;-44
2023/07/27 00:48:12;;;;;;;7.28;3.55;;;;;;;12.92;100.00;100708.06;5024570;28;20187;-46
2023/07/27 00:50:38;;;;;;;5.35;3.20;;;;;;;12.97;100.00;100723.03;5009536;28;20565;-45
2023/07/27 00:53:06;;;;;;;5.78;3.58;;;;;;;12.88;100.00;100711.84;5011227;28;20216;-46
2023/07/27 00:55:32;;;;;;;5.72;3.90;;;;;;;12.88;100.00;100706.47;5025091;28;20181;-45
2023/07/27 00:57:58;;;;;;;5.63;3.03;;;;;;;12.96;100.00;100706.97;5026825;28;20212;-47
2023/07/27 01:00:26;;;;;;;4.53;3.63;;;;;;;12.92;100.00;100700.00;5025983;28;20203;-46
2023/07/27 01:02:52;;;;;;;7.32;3.78;;;;;;;12.97;100.00;100712.28;5018490;28;20172;-43
2023/07/27 01:05:17;;;;;;;7.20;4.30;;;;;;;12.98;100.00;100719.38;5009487;28;20180;-46
2023/07/27 01:07:43;;;;;;;8.10;3.50;;;;;;;12.95;100.00;100722.25;5009012;28;20709;-49
2023/07/27 01:10:10;;;;;;;8.90;4.15;;;;;;;12.97;100.00;100716.81;5004810;28;20268;-47
2023/07/27 01:12:48;;;;;;;7.97;3.88;;;;;;;12.93;100.00;100724.13;5024001;28;20250;-48
2023/07/27 01:15:17;;;;;;;5.65;3.65;;;;;;;12.94;100.00;100725.00;5009610;28;20168;-48
2023/07/27 01:17:52;;;;;;;7.18;3.90;;;;;;;12.92;100.00;100724.19;5008805;28;20601;-48
2023/07/27 01:20:52;;;;;;;6.78;4.07;;;;;;;12.95;100.00;100718.69;5009712;28;20654;-48
2023/07/27 01:23:51;;;;;;;7.03;4.05;;;;;;;12.94;100.00;100727.69;4991875;28;20184;-47
2023/07/27 01:26:37;;;;;;;7.28;4.85;;;;;;;12.94;100.00;100730.38;5008198;28;20220;-49
2023/07/27 01:29:37;;;;;;;9.02;4.80;;;;;;;12.92;100.00;100716.13;5007262;28;20165;-47
2023/07/27 01:32:04;;;;;;;5.55;4.68;;;;;;;12.99;100.00;100717.59;5013994;28;20264;-47
2023/07/27 01:34:32;;;;;;;7.20;4.63;;;;;;;12.92;100.00;100711.66;5007321;28;20638;-48
2023/07/27 01:37:02;;;;;;;6.55;4.45;;;;;;;12.88;100.00;100710.06;5007204;28;20201;-49
2023/07/27 01:39:32;;;;;;;7.28;4.97;;;;;;;12.85;100.00;100701.25;5022054;28;20421;-47
2023/07/27 01:41:59;;;;;;;6.45;4.43;;;;;;;12.84;100.00;100700.41;5023142;28;20165;-47
2023/07/27 01:44:26;;;;;;;5.55;4.30;;;;;;;12.83;100.00;100713.91;5009747;28;20195;-49
2023/07/27 01:46:53;;;;;;;7.32;5.22;;;;;;;12.81;100.00;100711.28;5001135;28;20247;-47
2023/07/27 01:49:21;;;;;;;9.23;5.20;;;;;;;12.84;100.00;100721.03;5007105;28;20231;-48
2023/07/27 01:51:48;;;;;;;9.63;5.18;;;;;;;12.77;100.00;100721.34;5023173;28;20549;-48
2023/07/27 01:54:15;;;;;;;7.07;4.88;;;;;;;12.72;100.00;100718.00;5005295;28;20169;-48
2023/07/27 01:56:41;;;;;;;6.85;5.07;;;;;;;12.72;100.00;100717.13;5008278;28;20189;-47
2023/07/27 01:59:10;;;;;;;6.95;5.00;;;;;;;12.69;100.00;100717.28;5007023;28;20262;-48
2023/07/27 02:01:42;;;;;;;8.20;5.35;;;;;;;12.68;100.00;100713.72;5006467;28;20279;-46
2023/07/27 02:04:10;;;;;;;8.70;5.85;;;;;;;12.69;100.00;100710.09;5022618;28;20219;-48
2023/07/27 02:06:36;;;;;;;6.57;5.78;;;;;;;12.63;100.00;100707.69;5007939;28;20208;-47
2023/07/27 02:09:02;;;;;;;7.70;5.63;;;;;;;12.63;100.00;100709.53;5023389;28;20179;-46
2023/07/27 02:11:27;;;;;;;6.60;5.38;;;;;;;12.65;100.00;100713.88;5006942;28;20246;-47
2023/07/27 02:14:05;;;;;;;10.60;5.88;;;;;;;12.63;100.00;100723.81;5007717;28;20187;-48
2023/07/27 02:16:44;;;;;;;12.20;5.90;;;;;;;12.63;100.00;100709.53;5014205;28;20652;-48
2023/07/27 02:19:12;;;;;;;12.40;6.20;;;;;;;12.68;100.00;100702.09;5005001;28;20251;-48
2023/07/27 02:21:39;;;;;;;8.05;5.50;;;;;;;12.69;100.00;100717.28;5007856;28;20173;-48
2023/07/27 02:24:06;;;;;;;7.97;5.78;;;;;;;12.67;100.00;100701.22;5007474;28;20185;-47
2023/07/27 02:26:31;;;;;;;7.65;5.25;;;;;;;12.70;100.00;100709.16;5008108;28;20679;-49
2023/07/27 02:28:58;;;;;;;8.77;6.03;;;;;;;12.74;100.00;100710.72;5006844;28;20234;-47
2023/07/27 02:31:25;;;;;;;7.93;5.80;;;;;;;12.72;100.00;100709.06;5003536;28;20171;-46
2023/07/27 02:33:50;;;;;;;6.38;4.90;;;;;;;12.77;100.00;100709.72;5002737;28;20267;-48
2023/07/27 02:36:17;;;;;;;8.88;5.38;;;;;;;12.74;100.00;100701.78;5005453;28;20197;-48
2023/07/27 02:38:43;;;;;;;5.55;4.22;;;;;;;12.78;100.00;100703.38;5021545;28;20597;-47
2023/07/27 02:41:12;;;;;;;10.52;5.65;;;;;;;12.65;100.00;100695.06;5022739;28;20589;-49
2023/07/27 02:43:39;;;;;;;9.18;5.88;;;;;;;12.68;100.00;100694.03;5008242;28;20211;-48
2023/07/27 02:46:08;;;;;;;9.63;6.50;;;;;;;12.58;100.00;100691.78;5005772;28;20198;-47
2023/07/27 02:48:34;;;;;;;7.80;5.95;;;;;;;12.60;100.00;100699.78;5005287;28;20243;-47
2023/07/27 02:50:59;;;;;;;10.55;5.80;;;;;;;12.56;100.00;100693.69;5008093;28;20212;-47
2023/07/27 02:53:25;;;;;;;6.88;6.05;;;;;;;12.55;100.00;100693.75;5020944;28;20211;-46
2023/07/27 02:56:02;;;;;;;9.95;6.38;;;;;;;12.54;100.00;100692.03;5007241;28;20318;-48
2023/07/27 02:58:36;;;;;;;7.97;6.60;;;;;;;12.58;100.00;100696.31;5020867;28;20296;-46
2023/07/27 03:01:05;;;;;;;8.40;6.50;;;;;;;12.48;100.00;100703.94;5006777;28;20263;-46
2023/07/27 03:03:32;;;;;;;9.13;6.45;;;;;;;12.50;100.00;100690.44;5020203;28;20177;-47
2023/07/27 03:06:07;;;;;;;9.35;6.20;;;;;;;12.40;100.00;100692.69;4991974;28;20238;-47
2023/07/27 03:08:33;;;;;;;9.45;5.88;;;;;;;12.40;100.00;100707.94;5022559;28;20184;-49
2023/07/27 03:11:03;;;;;;;8.82;6.30;;;;;;;12.30;100.00;100704.81;5021333;28;20185;-49
2023/07/27 03:13:30;;;;;;;8.70;6.03;;;;;;;12.26;100.00;100698.72;5007004;28;20181;-47
2023/07/27 03:15:56;;;;;;;6.60;5.82;;;;;;;12.28;100.00;100696.81;5005410;28;20232;-46
2023/07/27 03:18:21;;;;;;;8.93;6.32;;;;;;;12.27;100.00;100696.91;5006837;28;20291;-48
2023/07/27 03:20:47;;;;;;;7.10;5.63;;;;;;;12.30;100.00;100700.31;5006541;28;20185;-47
2023/07/27 03:23:13;;;;;;;8.85;5.15;;;;;;;12.34;100.00;100715.34;5022017;28;20164;-48
2023/07/27 03:25:39;;;;;;;7.63;5.10;;;;;;;12.42;100.00;100716.78;5005275;28;20169;-49
2023/07/27 03:28:06;;;;;;;7.90;5.47;;;;;;;12.42;100.00;100725.75;5007644;28;20176;-47
2023/07/27 03:30:35;;;;;;;7.35;5.93;;;;;;;12.43;100.00;100730.16;5008529;28;20599;-47
2023/07/27 03:33:03;;;;;;;5.65;5.15;;;;;;;12.49;100.00;100716.44;5006717;28;20489;-48
2023/07/27 03:35:28;;;;;;;7.00;5.90;;;;;;;12.52;100.00;100723.47;5004013;28;20177;-48
2023/07/27 03:37:54;;;;;;;9.02;6.13;;;;;;;12.51;100.00;100711.00;5021354;28;20303;-47
2023/07/27 03:40:20;;;;;;;5.53;4.88;;;;;;;12.61;100.00;100719.47;5003896;28;20234;-49
2023/07/27 03:42:46;;;;;;;8.63;6.03;;;;;;;12.51;100.00;100717.22;4999034;28;20199;-48
2023/07/27 03:45:15;;;;;;;7.47;6.40;;;;;;;12.51;100.00;100730.66;5021346;28;20212;-49
2023/07/27 03:47:44;;;;;;;7.75;6.95;;;;;;;12.54;100.00;100730.50;5000917;28;20197;-47
2023/07/27 03:50:11;;;;;;;10.38;6.80;;;;;;;12.57;100.00;100719.63;5006776;28;20592;-47
2023/07/27 03:52:37;;;;;;;8.27;7.45;;;;;;;12.69;100.00;100723.53;4996255;28;20545;-49
2023/07/27 03:55:08;;;;;;;9.90;8.38;;;;;;;12.68;100.00;100721.81;5005431;28;20186;-46
2023/07/27 03:57:33;;;;;;;8.07;7.10;;;;;;;12.77;100.00;100731.22;5004546;28;20218;-47
2023/07/27 04:00:00;;;;;;;9.48;8.32;;;;;;;12.71;100.00;100732.38;5005341;28;20186;-46
2023/07/27 04:02:27;;;;;;;14.13;9.00;;;;;;;12.68;100.00;100716.44;5004568;28;20256;-44
2023/07/27 04:04:53;;;;;;;10.35;8.02;;;;;;;12.70;100.00;100727.97;5007527;28;20187;-46
2023/07/27 04:07:19;;;;;;;10.05;8.73;;;;;;;12.73;100.00;100724.25;5004776;28;20288;-45
2023/07/27 04:09:45;;;;;;;12.05;8.30;;;;;;;12.77;100.00;100717.78;5017746;28;20672;-47
2023/07/27 04:12:10;;;;;;;13.57;8.70;;;;;;;12.72;100.00;100699.16;5007004;28;20597;-47
2023/07/27 04:14:37;;;;;;;14.38;9.77;;;;;;;12.62;100.00;100694.34;5005214;28;20165;-47
2023/07/27 04:17:03;;;;;;;10.40;8.88;;;;;;;12.54;100.00;100697.41;5006428;28;20189;-47
2023/07/27 04:19:29;;;;;;;12.32;9.10;;;;;;;12.44;100.00;100680.88;5009879;28;20291;-45
2023/07/27 04:21:55;;;;;;;11.68;9.10;;;;;;;12.35;100.00;100681.28;5024598;28;20255;-45
2023/07/27 04:24:20;;;;;;;10.43;8.38;;;;;;;12.39;100.00;100695.44;5009448;28;20264;-44
2023/07/27 04:26:46;;;;;;;12.73;8.77;;;;;;;12.30;100.00;100692.25;5008319;28;20241;-46
2023/07/27 04:29:11;;;;;;;13.38;8.93;;;;;;;12.30;100.00;100686.00;5009761;28;20169;-45
2023/07/27 04:31:37;;;;;;;12.70;8.38;;;;;;;12.22;100.00;100694.41;5009802;28;20181;-45
2023/07/27 04:34:03;;;;;;;15.48;8.63;;;;;;;12.28;100.00;100686.06;5010398;28;20267;-45
2023/07/27 04:36:28;;;;;;;9.43;7.20;;;;;;;12.31;100.00;100696.69;5008209;28;20203;-46
2023/07/27 04:38:53;;;;;;;11.05;8.27;;;;;;;12.25;100.00;100686.25;5008529;28;20271;-43
2023/07/27 04:41:19;;;;;;;10.85;7.57;;;;;;;12.23;100.00;100692.63;5008884;28;20192;-43
2023/07/27 04:43:44;;;;;;;10.90;7.65;;;;;;;12.24;100.00;100684.47;5009010;28;20570;-44
2023/07/27 04:46:10;;;;;;;12.50;8.00;;;;;;;12.22;100.00;100686.38;5009751;28;20391;-44
2023/07/27 04:48:36;;;;;;;11.50;7.88;;;;;;;12.33;100.00;100691.22;5007797;28;20211;-45
2023/07/27 04:51:01;;;;;;;10.00;7.55;;;;;;;12.29;100.00;100692.34;5009274;28;20173;-46
2023/07/27 04:53:26;;;;;;;11.38;7.40;;;;;;;12.31;100.00;100685.94;5008909;28;20176;-46
2023/07/27 04:55:52;;;;;;;10.10;6.70;;;;;;;12.41;100.00;100693.56;5006970;28;20228;-46
2023/07/27 04:58:18;;;;;;;11.73;7.50;;;;;;;12.54;100.00;100689.34;5009202;28;20674;-46
2023/07/27 05:00:43;;;;;;;8.90;7.28;;;;;;;12.62;100.00;100676.41;5008597;28;20597;-46
2023/07/27 05:03:09;;;;;;;8.60;6.80;;;;;;;12.88;100.00;100688.56;5009419;28;20181;-45
2023/07/27 05:05:42;;;;;;;7.85;6.95;;;;;;;13.06;100.00;100689.44;5011163;28;20283;-46
2023/07/27 05:08:07;;;;;;;10.63;7.18;;;;;;;12.99;100.00;100678.13;5008948;28;20169;-45
2023/07/27 05:10:33;;;;;;;8.27;6.50;;;;;;;13.32;100.00;100681.88;5007385;28;20710;-45
2023/07/27 05:12:58;;;;;;;10.75;7.15;;;;;;;13.30;100.00;100689.16;5009002;28;20561;-46
2023/07/27 05:15:24;;;;;;;10.63;6.85;;;;;;;13.35;100.00;100685.25;5007350;28;20264;-46
2023/07/27 05:17:49;;;;;;;12.38;6.53;;;;;;;13.46;100.00;100678.47;5008330;28;20211;-45
2023/07/27 05:20:15;;;;;;;7.85;6.43;;;;;;;13.49;100.00;100671.09;5008126;28;20255;-45
2023/07/27 05:22:42;;;;;;;7.18;5.85;;;;;;;13.45;100.00;100682.13;5008489;28;20172;-44
2023/07/27 05:25:10;;;;;;;9.93;6.43;;;;;;;13.41;100.00;100676.00;5008509;28;20173;-44
2023/07/27 05:27:36;;;;;;;7.32;5.82;;;;;;;13.43;100.00;100655.28;5009547;28;20215;-46
2023/07/27 05:30:02;;;;;;;10.07;6.63;;;;;;;13.51;100.00;100644.97;5008842;28;20173;-45
2023/07/27 05:32:28;;;;;;;7.18;5.50;;;;;;;13.54;100.00;100646.63;5009019;28;20254;-45
2023/07/27 05:34:54;;;;;;;9.40;6.75;;;;;;;13.44;100.00;100642.69;5008493;28;20188;-48
2023/07/27 05:37:20;;;;;;;10.15;6.20;;;;;;;13.54;100.00;100635.88;5008166;28;20196;-45
2023/07/27 05:39:46;;;;;;;10.13;6.30;;;;;;;13.56;100.00;100633.97;5008086;28;20667;-45
2023/07/27 05:42:11;;;;;;;6.57;5.82;;;;;;;13.71;100.00;100621.47;5009675;28;20217;-44
2023/07/27 05:44:40;;;;;;;8.52;5.80;;;;;;;13.62;100.00;100632.75;5006608;28;20189;-45
2023/07/27 05:47:05;;;;;;;6.63;5.97;;;;;;;13.80;100.00;100624.53;5005275;28;20234;-47
2023/07/27 05:49:31;;;;;;;8.35;5.68;;;;;;;13.79;100.00;100621.94;5007221;28;20697;-46
2023/07/27 05:51:57;;;;;;;6.70;5.60;;;;;;;13.90;100.00;100611.41;5009029;28;20329;-44
2023/07/27 05:54:22;;;;;;;7.32;6.03;;;;;;;14.06;100.00;100610.56;5008776;28;20180;-44
2023/07/27 05:56:48;;;;;;;7.28;5.28;;;;;;;14.09;100.00;100619.34;5008617;28;20204;-46
2023/07/27 05:59:14;;;;;;;8.70;6.28;;;;;;;14.06;100.00;100613.25;5008904;28;20200;-47
2023/07/27 06:01:39;;;;;;;8.38;5.35;;;;;;;14.29;100.00;100622.75;5008210;28;20196;-44
2023/07/27 06:04:06;;;;;;;7.60;5.65;;;;;;;14.29;100.00;100607.44;5008424;28;20252;-47
2023/07/27 06:06:31;;;;;;;11.10;7.53;;;;;;;14.57;100.00;100606.75;5008907;28;20209;-46
2023/07/27 06:08:57;;;;;;;6.40;5.10;;;;;;;14.84;100.00;100603.38;5008306;28;20169;-45
2023/07/27 06:11:23;;;;;;;6.45;5.57;;;;;;;14.78;100.00;100601.94;5006760;28;20212;-46
2023/07/27 06:13:48;;;;;;;8.38;5.20;;;;;;;14.87;100.00;100591.53;4999728;28;20185;-46
2023/07/27 06:16:15;;;;;;;5.95;4.65;;;;;;;15.34;100.00;100591.34;5006647;28;20259;-45
2023/07/27 06:18:41;;;;;;;6.95;5.30;;;;;;;15.41;100.00;100591.81;5007428;28;20270;-45
2023/07/27 06:21:06;;;;;;;6.90;5.25;;;;;;;15.69;100.00;100585.56;5008051;28;20651;-45
2023/07/27 06:23:32;;;;;;;7.40;6.03;;;;;;;15.83;100.00;100580.19;5007307;28;20193;-45
2023/07/27 06:25:57;;;;;;;5.90;4.70;;;;;;;15.91;100.00;100576.13;5006233;28;20192;-45
2023/07/27 06:28:23;;;;;;;7.53;4.80;;;;;;;15.84;100.00;100571.09;5005959;28;20223;-46
2023/07/27 06:30:48;;;;;;;8.70;4.53;;;;;;;15.77;100.00;100563.50;5006122;28;20180;-44
2023/07/27 06:33:14;;;;;;;8.27;5.13;;;;;;;15.83;100.00;100577.47;5007451;28;20287;-44
2023/07/27 06:35:40;;;;;;;9.85;4.90;;;;;;;16.01;100.00;100567.31;5006558;28;20198;-45
2023/07/27 06:38:05;;;;;;;6.47;4.78;;;;;;;16.21;100.00;100567.84;5007031;28;20300;-45
2023/07/27 06:40:31;;;;;;;7.82;4.85;;;;;;;16.46;100.00;100557.13;5004429;28;20188;-46
2023/07/27 06:42:56;;;;;;;8.45;5.85;;;;;;;16.50;100.00;100549.66;5006836;28;20228;-45
2023/07/27 06:45:22;;;;;;;6.65;4.75;;;;;;;16.63;100.00;100536.19;5003734;28;20271;-46
2023/07/27 06:47:47;;;;;;;6.50;4.50;;;;;;;16.59;100.00;100542.75;5005955;28;20224;-45
2023/07/27 06:50:13;;;;;;;7.60;4.55;;;;;;;16.80;100.00;100541.34;5008020;28;20176;-46
2023/07/27 06:52:38;;;;;;;6.28;4.25;;;;;;;16.82;100.00;100543.94;5006149;28;20235;-45
2023/07/27 06:55:06;;;;;;;7.93;4.78;;;;;;;17.48;100.00;100534.75;5006043;28;20178;-44
2023/07/27 06:57:31;;;;;;;6.28;4.82;;;;;;;17.22;100.00;100524.91;5005745;28;20303;-44
2023/07/27 06:59:57;;;;;;;7.53;4.13;;;;;;;17.63;100.00;100511.09;5003171;28;20526;-45
2023/07/27 07:02:23;;;;;;;5.93;4.40;;;;;;;17.53;97.01;100514.59;5006970;28;20195;-43
2023/07/27 07:04:49;;;;;;;7.25;3.90;;;;;;;18.19;96.03;100504.31;5005202;28;20214;-46
2023/07/27 07:07:15;;;;;;;6.22;3.88;;;;;;;18.21;94.82;100511.34;5007956;28;20216;-47
2023/07/27 07:09:40;;;;;;;6.22;4.25;;;;;;;18.45;91.82;100497.78;5011731;28;20197;-44
2023/07/27 07:12:06;;;;;;;6.00;3.85;;;;;;;18.20;90.44;100493.38;5007610;28;20172;-45
2023/07/27 07:14:33;;;;;;;4.68;3.72;;;;;;;17.88;89.01;100501.19;5006121;28;20172;-44
2023/07/27 07:16:59;;;;;;;9.45;4.25;;;;;;;17.75;89.11;100494.91;5006842;28;20228;-44
2023/07/27 07:19:24;;;;;;;6.25;3.90;;;;;;;18.42;89.15;100495.31;5007851;28;20682;-45
2023/07/27 07:21:50;;;;;;;4.72;3.88;;;;;;;18.35;87.88;100482.34;5007090;28;20337;-44
2023/07/27 07:24:16;;;;;;;5.40;3.53;;;;;;;18.42;87.06;100489.88;5006172;28;20185;-44
2023/07/27 07:26:41;;;;;;;5.55;4.28;;;;;;;18.25;86.60;100479.44;5006305;28;20287;-44
2023/07/27 07:29:07;;;;;;;7.32;4.43;;;;;;;18.04;84.80;100480.09;5007709;28;20181;-44
2023/07/27 07:31:33;;;;;;;4.97;3.80;;;;;;;18.41;84.77;100482.75;5006566;28;20622;-45
2023/07/27 07:33:59;;;;;;;4.85;3.80;;;;;;;18.43;83.47;100472.63;5005707;28;20200;-45
2023/07/27 07:36:25;;;;;;;5.60;4.13;;;;;;;18.00;83.59;100480.44;5006662;28;20207;-45
2023/07/27 07:38:51;;;;;;;6.35;4.00;;;;;;;18.36;83.27;100468.66;5007430;28;20197;-47
2023/07/27 07:41:17;;;;;;;6.88;4.13;;;;;;;18.78;82.22;100468.19;5006913;28;20177;-46
2023/07/27 07:43:42;;;;;;;10.20;4.40;;;;;;;18.69;81.24;100457.06;5006780;28;20196;-45
2023/07/27 07:46:12;;;;;;;5.35;3.85;;;;;;;18.97;80.21;100443.16;5007530;28;20287;-45
2023/07/27 07:48:38;;;;;;;6.07;3.80;;;;;;;18.91;80.95;100449.94;5000764;28;20701;-45
2023/07/27 07:51:09;;;;;;;4.57;3.78;;;;;;;18.72;80.08;100440.50;5006552;28;20192;-45
2023/07/27 07:53:34;;;;;;;6.45;4.00;;;;;;;18.49;79.28;100442.31;5009111;28;20188;-44
2023/07/27 07:56:00;;;;;;;3.97;3.30;;;;;;;18.50;78.73;100438.63;5008427;28;20287;-45
2023/07/27 07:58:25;;;;;;;4.45;4.00;;;;;;;18.72;77.28;100431.50;5009243;28;20208;-44
2023/07/27 08:00:51;;;;;;;7.35;3.88;;;;;;;19.22;77.23;100429.34;5008951;28;20323;-45
2023/07/27 08:03:17;;;;;;;5.07;3.55;;;;;;;19.23;76.07;100427.50;5010619;28;20177;-45
2023/07/27 08:05:43;;;;;;;4.93;3.83;;;;;;;19.05;76.44;100429.84;5009271;28;20200;-44
2023/07/27 08:08:08;;;;;;;5.15;3.80;;;;;;;19.29;76.06;100432.44;5010727;28;20173;-43
2023/07/27 08:10:34;;;;;;;4.75;3.65;;;;;;;19.75;75.58;100429.53;5011179;28;20640;-44
2023/07/27 08:13:00;;;;;;;3.95;3.22;;;;;;;20.24;75.66;100427.25;5010301;28;20192;-45
2023/07/27 08:15:25;;;;;;;3.58;3.28;;;;;;;20.55;74.57;100411.00;5010689;28;20191;-45
2023/07/27 08:17:51;;;;;;;5.60;3.92;;;;;;;19.82;72.73;100402.72;5007897;28;20200;-45
2023/07/27 08:20:16;;;;;;;3.95;3.25;;;;;;;19.97;72.17;100406.00;5010574;28;20669;-45
2023/07/27 08:22:42;;;;;;;3.70;3.25;;;;;;;19.29;72.11;100403.41;5009552;28;20541;-44
2023/07/27 08:25:07;;;;;;;5.68;3.30;;;;;;;18.91;71.37;100392.94;5010374;28;20177;-44
2023/07/27 08:27:34;;;;;;;4.13;3.42;;;;;;;19.21;69.68;100388.72;5010487;28;20219;-45
2023/07/27 08:30:01;;;;;;;3.22;2.92;;;;;;;19.30;68.72;100383.41;5009299;28;20173;-45
2023/07/27 08:32:26;;;;;;;4.68;2.83;;;;;;;19.68;68.24;100387.53;5008490;28;20200;-46
2023/07/27 08:34:52;;;;;;;5.05;2.90;;;;;;;19.87;67.48;100378.72;5008611;28;20270;-45
2023/07/27 08:37:17;;;;;;;3.60;2.95;;;;;;;20.08;67.43;100373.31;5013545;28;20201;-44
2023/07/27 08:39:43;;;;;;;4.00;3.13;;;;;;;20.08;66.53;100367.88;5009652;28;20187;-44
2023/07/27 08:42:14;;;;;;;3.17;2.85;;;;;;;20.50;66.20;100367.88;5005334;28;20592;-46
2023/07/27 08:44:43;;;;;;;2.72;2.50;;;;;;;20.33;64.48;100352.16;5009664;28;20172;-48
2023/07/27 08:47:09;;;;;;;4.13;2.70;;;;;;;20.67;63.77;100339.22;5007965;28;20247;-46
2023/07/27 08:49:36;;;;;;;4.28;3.10;;;;;;;20.54;64.45;100344.81;5008953;28;20231;-47
2023/07/27 08:52:01;;;;;;;5.63;3.33;;;;;;;19.96;64.04;100339.00;5009299;28;20188;-47
2023/07/27 08:54:28;;;;;;;3.53;2.80;;;;;;;19.73;65.43;100355.41;5008891;28;20199;-49
2023/07/27 08:56:54;;;;;;;3.58;2.90;;;;;;;20.10;66.10;100360.44;5008805;28;20416;-49
2023/07/27 08:59:19;;;;;;;9.82;8.85;;;;;;;20.81;66.11;100351.59;5009401;28;20256;-47
2023/07/27 09:01:45;;;;;;;7.25;3.10;;;;;;;20.97;65.79;100351.94;5009842;28;20718;-48
2023/07/27 09:04:10;;;;;;;4.47;3.38;;;;;;;20.10;65.21;100344.13;5008089;28;20259;-47
2023/07/27 09:06:44;;;;;;;3.95;3.35;;;;;;;19.66;67.38;100369.63;5008643;28;20694;-46
2023/07/27 09:09:25;;;;;;;4.47;3.10;;;;;;;19.23;68.00;100371.31;5008081;28;20189;-48
2023/07/27 09:11:51;;;;;;;5.70;4.00;;;;;;;18.83;69.17;100369.13;5009285;28;20183;-47
2023/07/27 09:14:19;;;;;;;5.55;3.60;;;;;;;18.83;70.46;100382.69;5009228;28;20181;-47
2023/07/27 09:16:49;;;;;;;5.10;3.80;;;;;;;18.55;71.01;100386.72;5025457;28;20288;-47
2023/07/27 09:19:18;;;;;;;4.72;3.85;;;;;;;18.31;71.83;100384.06;5007796;28;20226;-46
2023/07/27 09:21:47;;;;;;;5.63;3.88;;;;;;;18.75;72.96;100385.13;5007838;28;20212;-47
2023/07/27 09:24:14;;;;;;;4.78;3.45;;;;;;;18.82;72.98;100389.09;5008660;28;20165;-49
2023/07/27 09:26:45;;;;;;;6.38;3.90;;;;;;;18.98;72.92;100385.16;5006805;28;20192;-47
2023/07/27 09:29:11;;;;;;;5.65;3.70;;;;;;;19.18;72.98;100389.00;5007401;28;20605;-48
2023/07/27 09:31:54;;;;;;;5.13;3.97;;;;;;;18.82;72.10;100380.97;5008992;28;20547;-48
2023/07/27 09:34:20;;;;;;;9.70;4.57;;;;;;;18.79;71.97;100378.50;5007580;28;20219;-46
2023/07/27 09:36:47;;;;;;;6.28;4.05;;;;;;;18.97;72.35;100383.44;5008981;28;20212;-46
2023/07/27 09:39:13;;;;;;;5.22;3.47;;;;;;;19.00;72.96;100391.31;5007742;28;20545;-46
2023/07/27 09:41:42;;;;;;;5.20;3.85;;;;;;;19.21;74.03;100394.16;5008476;28;20189;-46
2023/07/27 09:44:12;;;;;;;5.90;3.70;;;;;;;19.08;74.36;100394.28;5006603;28;20544;-46
2023/07/27 09:46:37;;;;;;;6.28;4.55;;;;;;;19.09;73.71;100393.31;5009539;28;20244;-48
2023/07/27 09:49:04;;;;;;;5.75;4.25;;;;;;;18.41;73.92;100390.50;5007822;28;20588;-46
2023/07/27 09:51:29;;;;;;;7.53;4.50;;;;;;;18.67;74.28;100382.16;5006909;28;20502;-48
2023/07/27 09:53:55;;;;;;;6.95;4.55;;;;;;;18.56;74.44;100380.28;5008042;28;20180;-47
2023/07/27 09:56:21;;;;;;;5.38;4.10;;;;;;;18.70;75.24;100381.94;5007359;28;20247;-47
2023/07/27 09:58:47;;;;;;;6.40;4.70;;;;;;;18.80;75.29;100382.06;5008017;28;20717;-47
2023/07/27 10:01:12;;;;;;;6.28;5.05;;;;;;;18.46;75.54;100380.16;5008706;28;20704;-46
2023/07/27 10:03:38;;;;;;;4.55;4.10;;;;;;;18.89;75.56;100376.78;5008143;28;20188;-46
2023/07/27 10:06:06;;;;;;;4.50;3.80;;;;;;;19.43;75.69;100385.13;5008719;28;20193;-47
2023/07/27 10:08:33;;;;;;;5.78;4.40;;;;;;;19.43;74.49;100366.09;5008463;28;20199;-49
2023/07/27 10:11:00;;;;;;;5.65;4.63;;;;;;;19.42;73.52;100367.09;5007791;28;20456;-46
2023/07/27 10:13:25;;;;;;;8.48;4.82;;;;;;;19.18;74.46;100365.41;5007622;28;20541;-47
2023/07/27 10:15:52;;;;;;;6.25;4.90;;;;;;;19.19;74.57;100366.25;5008300;28;20216;-47
2023/07/27 10:18:28;;;;;;;7.32;4.60;;;;;;;19.38;73.50;100360.19;5008423;28;20204;-46
2023/07/27 10:20:55;;;;;;;6.80;4.75;;;;;;;18.91;73.61;100352.22;5007039;28;20316;-47
2023/07/27 10:23:28;;;;;;;8.48;4.72;;;;;;;18.97;73.92;100362.56;5006241;28;20179;-46
2023/07/27 10:25:56;;;;;;;5.10;4.60;;;;;;;19.00;74.57;100358.75;5007945;28;20204;-46
2023/07/27 10:28:43;;;;;;;6.85;4.70;;;;;;;18.83;75.04;100357.41;5007153;28;20302;-46
2023/07/27 10:31:23;;;;;;;6.43;4.75;;;;;;;18.93;75.01;100358.38;5021988;28;20180;-46
2023/07/27 10:34:17;;;;;;;5.78;4.88;;;;;;;18.58;76.95;100363.88;5007146;28;20184;-46
2023/07/27 10:36:48;;;;;;;7.30;5.25;;;;;;;18.31;77.23;100359.66;5007842;28;20624;-47
2023/07/27 10:39:15;;;;;;;6.93;4.95;;;;;;;18.47;77.76;100372.88;5006286;28;20217;-46
2023/07/27 10:42:07;;;;;;;7.38;5.72;;;;;;;18.29;78.13;100362.47;5007461;28;20234;-45
2023/07/27 10:44:53;;;;;;;6.32;5.55;;;;;;;18.26;77.81;100361.88;5006202;28;20216;-47
2023/07/27 10:47:24;;;;;;;6.07;5.10;;;;;;;18.10;78.69;100371.19;5005375;28;20560;-46
2023/07/27 10:49:52;;;;;;;6.57;5.45;;;;;;;18.16;78.43;100366.28;5021914;28;20207;-46
2023/07/27 10:52:23;;;;;;;8.38;6.00;;;;;;;18.19;79.68;100368.75;5005252;28;20170;-46
2023/07/27 10:54:50;;;;;;;7.45;5.68;;;;;;;17.95;79.81;100374.19;5006042;28;20256;-46
2023/07/27 10:57:17;;;;;;;9.18;5.05;;;;;;;18.19;80.43;100366.03;5006201;28;20577;-46
2023/07/27 10:59:45;;;;;;;7.82;4.60;;;;;;;18.48;80.34;100374.63;5006692;28;20205;-45
2023/07/27 11:02:16;;;;;;;6.03;5.13;;;;;;;18.60;79.97;100353.78;5008308;28;20192;-46
2023/07/27 11:04:43;;;;;;;6.28;5.55;;;;;;;18.71;78.99;100351.94;5005206;28;20427;-46
2023/07/27 11:07:10;;;;;;;9.00;5.63;;;;;;;18.63;79.40;100346.28;5004245;28;20460;-46
2023/07/27 11:09:36;;;;;;;6.85;5.00;;;;;;;18.55;78.74;100346.00;5007674;28;20212;-48
2023/07/27 11:12:02;;;;;;;6.47;5.07;;;;;;;18.57;78.69;100359.47;5007291;28;20258;-47
2023/07/27 11:14:28;;;;;;;6.60;4.57;;;;;;;18.47;78.77;100348.47;5005759;28;20267;-46
2023/07/27 11:16:54;;;;;;;8.10;5.60;;;;;;;18.30;78.05;100355.19;5006896;28;20266;-46
2023/07/27 11:19:21;;;;;;;6.75;5.10;;;;;;;18.34;77.45;100335.00;5006481;28;20206;-46
2023/07/27 11:21:49;;;;;;;6.72;5.07;;;;;;;18.21;77.76;100339.66;5006944;28;20199;-47